createdAt,value
2018-12-07T00:00:06.768Z,98828.80
2018-12-07T00:02:34.859Z,98819.84
2018-12-07T00:05:03.584Z,98822.03
2018-12-07T00:07:31.623Z,98819.86
2018-12-07T00:10:00.104Z,98815.62
2018-12-07T00:12:28.275Z,98815.12
2018-12-07T00:14:56.360Z,98811.47
2018-12-07T00:17:25.647Z,98810.74
2018-12-07T00:19:53.710Z,98806.41
2018-12-07T00:22:21.895Z,98797.17
2018-12-07T00:24:49.963Z,98798.02
2018-12-07T00:27:18.048Z,98795.23
2018-12-07T00:29:46.119Z,98795.05
2018-12-07T00:32:14.883Z,98788.41
2018-12-07T00:34:43.011Z,98792.85
2018-12-07T00:37:11.075Z,98784.45
2018-12-07T00:39:39.243Z,98796.56
2018-12-07T00:42:07.318Z,98784.39
2018-12-07T00:44:35.651Z,98776.97
2018-12-07T00:47:03.837Z,98780.59
2018-12-07T00:49:31.920Z,98779.80
2018-12-07T00:52:00.095Z,98779.14
2018-12-07T00:54:28.287Z,98766.06
2018-12-07T00:56:56.356Z,98774.46
2018-12-07T00:59:24.431Z,98768.02
2018-12-07T01:01:52.495Z,98768.64
2018-12-07T01:04:20.577Z,98773.06
2018-12-07T01:06:48.648Z,98768.11
2018-12-07T01:09:16.822Z,98759.56
2018-12-07T01:11:44.871Z,98765.41
2018-12-07T01:14:12.939Z,98762.77
2018-12-07T01:16:41.024Z,98752.37
2018-12-07T01:19:09.096Z,98757.84
2018-12-07T01:21:37.178Z,98751.63
2018-12-07T01:24:05.259Z,98749.48
2018-12-07T01:26:33.424Z,98746.30
2018-12-07T01:29:01.600Z,98742.06
2018-12-07T01:31:29.683Z,98740.07
2018-12-07T01:33:57.760Z,98731.91
2018-12-07T01:36:25.823Z,98732.77
2018-12-07T01:38:53.943Z,98732.73
2018-12-07T01:41:22.017Z,98726.56
2018-12-07T01:43:50.095Z,98734.73
2018-12-07T01:46:18.403Z,98726.13
2018-12-07T01:48:46.543Z,98733.75
2018-12-07T01:51:14.633Z,98723.93
2018-12-07T01:53:42.724Z,98722.07
2018-12-07T01:56:10.791Z,98720.69
2018-12-07T01:58:38.863Z,98707.69
2018-12-07T02:01:06.959Z,98698.08
2018-12-07T02:03:35.108Z,98697.17
2018-12-07T02:06:03.221Z,98702.11
2018-12-07T02:08:31.299Z,98691.23
2018-12-07T02:10:59.395Z,98685.02
2018-12-07T02:13:27.595Z,98694.65
2018-12-07T02:15:55.648Z,98699.38
2018-12-07T02:18:23.719Z,98696.30
2018-12-07T02:20:51.782Z,98687.58
2018-12-07T02:23:19.988Z,98693.69
2018-12-07T02:25:48.035Z,98683.14
2018-12-07T02:28:16.095Z,98682.80
2018-12-07T02:30:44.205Z,98677.65
2018-12-07T02:33:12.271Z,98658.52
2018-12-07T02:35:41.031Z,98674.36
2018-12-07T02:38:09.108Z,98670.72
2018-12-07T02:40:37.416Z,98659.52
2018-12-07T02:43:05.548Z,98660.96
2018-12-07T02:45:34.341Z,98657.03
2018-12-07T02:48:02.505Z,98661.09
2018-12-07T02:50:30.555Z,98658.55
2018-12-07T02:52:58.872Z,98655.98
2018-12-07T02:55:27.031Z,98655.27
2018-12-07T02:57:55.123Z,98665.05
2018-12-07T03:00:23.175Z,98658.05
2018-12-07T03:02:51.353Z,98664.75
2018-12-07T03:05:19.432Z,98655.43
2018-12-07T03:07:47.516Z,98647.59
2018-12-07T03:10:15.595Z,98647.06
2018-12-07T03:12:43.667Z,98639.91
2018-12-07T03:15:12.015Z,98649.30
2018-12-07T03:17:40.095Z,98646.02
2018-12-07T03:20:08.414Z,98636.86
2018-12-07T03:22:36.536Z,98627.80
2018-12-07T03:25:06.040Z,98636.28
2018-12-07T03:27:34.131Z,98639.64
2018-12-07T03:30:02.317Z,98635.97
2018-12-07T03:32:30.776Z,98629.21
2018-12-07T03:34:58.831Z,98626.31
2018-12-07T03:37:27.148Z,98630.72
2018-12-07T03:39:55.216Z,98629.64
2018-12-07T03:42:23.287Z,98630.27
2018-12-07T03:44:51.468Z,98629.17
2018-12-07T03:47:19.511Z,98622.44
2018-12-07T03:49:47.676Z,98621.66
2018-12-07T03:52:15.851Z,98619.23
2018-12-07T03:54:43.931Z,98621.14
2018-12-07T03:57:12.140Z,98618.48
2018-12-07T03:59:40.219Z,98615.91
2018-12-07T04:02:08.289Z,98621.09
2018-12-07T04:04:36.518Z,98621.89
2018-12-07T04:07:04.825Z,98625.69
2018-12-07T04:09:33.023Z,98628.55
2018-12-07T04:12:01.139Z,98623.69
2018-12-07T04:14:29.348Z,98619.81
2018-12-07T04:16:57.395Z,98617.97
2018-12-07T04:19:25.486Z,98618.27
2018-12-07T04:21:53.639Z,98610.34
2018-12-07T04:24:21.737Z,98616.91
2018-12-07T04:26:49.772Z,98605.95
2018-12-07T04:29:18.143Z,98600.37
2018-12-07T04:31:46.295Z,98606.37
2018-12-07T04:34:14.631Z,98600.17
2018-12-07T04:36:42.753Z,98604.48
2018-12-07T04:39:10.855Z,98610.56
2018-12-07T04:41:38.949Z,98609.95
2018-12-07T04:44:07.191Z,98609.95
2018-12-07T04:46:35.276Z,98611.38
2018-12-07T04:49:03.415Z,98582.75
2018-12-07T04:51:31.748Z,98603.55
2018-12-07T04:53:59.821Z,98597.06
2018-12-07T04:56:27.902Z,98596.99
2018-12-07T04:58:56.031Z,98588.18
2018-12-07T05:01:24.137Z,98583.89
2018-12-07T05:03:52.208Z,98580.48
2018-12-07T05:06:20.326Z,98577.72
2018-12-07T05:08:48.433Z,98568.26
2018-12-07T05:11:16.505Z,98558.38
2018-12-07T05:13:44.771Z,98566.84
2018-12-07T05:16:12.832Z,98547.84
2018-12-07T05:18:41.320Z,98542.77
2018-12-07T05:21:09.486Z,98536.32
2018-12-07T05:23:37.656Z,98523.04
2018-12-07T05:26:05.773Z,98512.57
2018-12-07T05:28:33.971Z,98522.72
2018-12-07T05:31:02.068Z,98534.46
2018-12-07T05:33:30.296Z,98528.59
2018-12-07T05:35:58.367Z,98538.09
2018-12-07T05:38:26.621Z,98538.78
2018-12-07T05:40:54.667Z,98529.77
2018-12-07T05:43:22.809Z,98546.11
2018-12-07T05:45:50.844Z,98540.03
2018-12-07T05:48:23.658Z,98538.05
2018-12-07T05:50:49.122Z,98523.02
2018-12-07T05:53:17.325Z,98525.03
2018-12-07T05:55:45.404Z,98520.98
2018-12-07T05:58:13.647Z,98514.52
2018-12-07T06:00:41.739Z,98516.99
2018-12-07T06:03:09.883Z,98511.08
2018-12-07T06:05:37.964Z,98506.33
2018-12-07T06:08:06.023Z,98511.32
2018-12-07T06:10:34.237Z,98509.72
2018-12-07T06:13:02.321Z,98503.43
2018-12-07T06:15:30.480Z,98503.36
2018-12-07T06:17:58.549Z,98499.73
2018-12-07T06:20:26.631Z,98505.56
2018-12-07T06:22:54.791Z,98490.59
2018-12-07T06:25:22.831Z,98501.27
2018-12-07T06:27:51.007Z,98496.16
2018-12-07T06:30:19.179Z,98492.42
2018-12-07T06:32:47.285Z,98487.52
2018-12-07T06:35:15.563Z,98489.56
2018-12-07T06:37:43.648Z,98483.53
2018-12-07T06:40:11.748Z,98492.59
2018-12-07T06:42:39.848Z,98489.23
2018-12-07T06:45:08.347Z,98477.57
2018-12-07T06:47:36.448Z,98476.78
2018-12-07T06:50:07.889Z,98479.04
2018-12-07T06:52:35.938Z,98473.94
2018-12-07T06:55:05.172Z,98464.78
2018-12-07T06:57:33.333Z,98464.31
2018-12-07T07:00:01.476Z,98466.66
2018-12-07T07:02:29.651Z,98448.48
2018-12-07T07:04:57.699Z,98450.95
2018-12-07T07:07:25.767Z,98449.02
2018-12-07T07:09:53.832Z,98444.67
2018-12-07T07:12:21.912Z,98442.85
2018-12-07T07:14:50.130Z,98436.14
2018-12-07T07:17:18.206Z,98442.00
2018-12-07T07:19:46.314Z,98436.17
2018-12-07T07:22:14.433Z,98424.89
2018-12-07T07:24:42.576Z,98422.47
2018-12-07T07:27:10.666Z,98421.77
2018-12-07T07:29:38.843Z,98424.84
2018-12-07T07:32:07.323Z,98424.16
2018-12-07T07:34:35.464Z,98424.84
2018-12-07T07:37:03.631Z,98431.45
2018-12-07T07:39:31.744Z,98425.20
2018-12-07T07:41:59.947Z,98415.09
2018-12-07T07:44:28.080Z,98404.50
2018-12-07T07:46:56.309Z,98406.72
2018-12-07T07:49:24.337Z,98403.25
2018-12-07T07:51:52.419Z,98403.64
2018-12-07T07:54:21.219Z,98392.13
2018-12-07T07:56:49.643Z,98404.66
2018-12-07T07:59:17.739Z,98404.08
2018-12-07T08:01:45.923Z,98407.35
2018-12-07T08:04:14.072Z,98394.06
2018-12-07T08:06:42.166Z,98380.81
2018-12-07T08:09:10.368Z,98396.33
2018-12-07T08:11:38.443Z,98392.33
2018-12-07T08:14:06.660Z,98378.41
2018-12-07T08:16:35.191Z,98387.34
2018-12-07T08:19:03.271Z,98389.13
2018-12-07T08:21:31.327Z,98395.63
2018-12-07T08:23:59.455Z,98378.57
2018-12-07T08:26:27.580Z,98380.81
2018-12-07T08:28:55.646Z,98370.91
2018-12-07T08:31:23.716Z,98377.44
2018-12-07T08:33:51.814Z,98369.39
2018-12-07T08:36:19.958Z,98384.57
2018-12-07T08:38:48.039Z,98373.47
2018-12-07T08:41:16.127Z,98366.98
2018-12-07T08:43:44.203Z,98361.78
2018-12-07T08:46:12.347Z,98357.31
2018-12-07T08:48:40.632Z,98350.54
2018-12-07T08:51:08.699Z,98351.68
2018-12-07T08:53:36.782Z,98349.14
2018-12-07T08:56:05.047Z,98345.48
2018-12-07T08:58:33.215Z,98352.78
2018-12-07T09:01:01.297Z,98341.91
2018-12-07T09:03:29.531Z,98340.61
2018-12-07T09:05:57.624Z,98345.74
2018-12-07T09:08:25.676Z,98340.89
2018-12-07T09:10:53.880Z,98340.80
2018-12-07T09:13:22.013Z,98333.62
2018-12-07T09:15:50.487Z,98333.66
2018-12-07T09:18:18.595Z,98338.16
2018-12-07T09:20:53.771Z,98332.80
2018-12-07T09:23:16.749Z,98339.34
2018-12-07T09:25:44.883Z,98337.32
2018-12-07T09:28:12.972Z,98331.73
2018-12-07T09:30:41.256Z,98329.70
2018-12-07T09:33:09.439Z,98328.70
2018-12-07T09:35:37.583Z,98328.22
2018-12-07T09:38:12.969Z,98320.50
2018-12-07T09:40:35.759Z,98320.14
2018-12-07T09:43:03.883Z,98319.51
2018-12-07T09:45:31.964Z,98320.48
2018-12-07T09:48:00.014Z,98313.48
2018-12-07T09:50:28.140Z,98308.52
2018-12-07T09:52:56.212Z,98298.03
2018-12-07T09:55:24.347Z,98292.97
2018-12-07T09:57:52.571Z,98281.62
2018-12-07T10:00:20.755Z,98280.66
2018-12-07T10:02:48.827Z,98272.78
2018-12-07T10:05:16.980Z,98272.09
2018-12-07T10:07:45.259Z,98279.19
2018-12-07T10:10:13.357Z,98269.52
2018-12-07T10:12:41.403Z,98267.12
2018-12-07T10:15:09.554Z,98267.11
2018-12-07T10:17:37.664Z,98253.23
2018-12-07T10:20:06.348Z,98264.77
2018-12-07T10:22:34.470Z,98254.91
2018-12-07T10:25:02.564Z,98254.28
2018-12-07T10:27:30.668Z,98250.57
2018-12-07T10:29:58.779Z,98247.83
2018-12-07T10:32:26.904Z,98227.41
2018-12-07T10:34:54.988Z,98230.93
2018-12-07T10:37:23.151Z,98223.13
2018-12-07T10:39:51.297Z,98216.31
2018-12-07T10:42:19.411Z,98211.71
2018-12-07T10:44:47.479Z,98214.83
2018-12-07T10:47:15.555Z,98203.03
2018-12-07T10:49:43.598Z,98199.88
2018-12-07T10:52:11.719Z,98198.11
2018-12-07T10:54:39.964Z,98190.12
2018-12-07T10:57:08.035Z,98186.16
2018-12-07T10:59:36.163Z,98182.59
2018-12-07T11:02:06.253Z,98183.73
2018-12-07T11:04:36.220Z,98167.22
2018-12-07T11:07:06.347Z,98150.41
2018-12-07T11:09:36.314Z,98154.69
2018-12-07T11:12:06.538Z,98150.34
2018-12-07T11:14:36.580Z,98143.56
2018-12-07T11:17:06.515Z,98140.44
2018-12-07T11:19:36.459Z,98136.36
2018-12-07T11:22:06.404Z,98122.56
2018-12-07T11:24:36.520Z,98113.89
2018-12-07T11:27:06.475Z,98113.60
2018-12-07T11:29:36.895Z,98107.89
2018-12-07T11:32:06.927Z,98096.72
2018-12-07T11:34:36.193Z,98092.38
2018-12-07T11:37:04.355Z,98073.27
2018-12-07T11:39:32.454Z,98089.24
2018-12-07T11:42:00.593Z,98085.19
2018-12-07T11:44:28.667Z,98069.27
2018-12-07T11:46:56.736Z,98074.36
2018-12-07T11:49:26.916Z,98073.28
2018-12-07T11:51:55.879Z,98066.95
2018-12-07T11:54:23.927Z,98066.59
2018-12-07T11:56:52.023Z,98059.98
2018-12-07T11:59:20.205Z,98065.05
2018-12-07T12:01:48.297Z,98046.97
2018-12-07T12:04:16.675Z,98045.56
2018-12-07T12:06:44.793Z,98023.49
2018-12-07T12:09:12.844Z,98029.18
2018-12-07T12:11:40.995Z,98033.42
2018-12-07T12:14:09.167Z,98026.78
2018-12-07T12:16:37.235Z,98018.77
2018-12-07T12:19:05.305Z,98009.28
2018-12-07T12:21:33.383Z,98004.94
2018-12-07T12:24:01.697Z,98000.89
2018-12-07T12:26:29.757Z,97985.42
2018-12-07T12:28:57.807Z,97975.86
2018-12-07T12:31:25.863Z,97966.59
2018-12-07T12:33:53.927Z,97967.67
2018-12-07T12:36:22.012Z,97970.62
2018-12-07T12:38:50.092Z,97962.37
2018-12-07T12:41:18.207Z,97966.21
2018-12-07T12:43:47.016Z,97956.38
2018-12-07T12:46:15.100Z,97940.02
2018-12-07T12:48:43.183Z,97943.69
2018-12-07T12:51:11.255Z,97934.98
2018-12-07T12:53:39.332Z,97926.02
2018-12-07T12:56:07.381Z,97923.99
2018-12-07T12:58:35.524Z,97926.48
2018-12-07T13:01:03.720Z,97920.28
2018-12-07T13:03:31.804Z,97910.77
2018-12-07T13:06:00.145Z,97902.15
2018-12-07T13:08:28.200Z,97886.91
2018-12-07T13:10:56.347Z,97881.49
2018-12-07T13:13:24.407Z,97876.89
2018-12-07T13:15:52.459Z,97871.72
2018-12-07T13:18:21.488Z,97867.97
2018-12-07T13:20:49.598Z,97869.91
2018-12-07T13:23:17.627Z,97849.11
2018-12-07T13:25:45.699Z,97850.97
2018-12-07T13:28:14.081Z,97839.19
2018-12-07T13:30:42.125Z,97830.58
2018-12-07T13:33:10.199Z,97823.23
2018-12-07T13:35:38.643Z,97818.48
2018-12-07T13:38:06.739Z,97810.53
2018-12-07T13:40:34.991Z,97808.55
2018-12-07T13:43:03.354Z,97806.14
2018-12-07T13:45:31.541Z,97803.52
2018-12-07T13:47:59.923Z,97792.58
2018-12-07T13:50:30.163Z,97800.73
2018-12-07T13:52:58.587Z,97789.47
2018-12-07T13:55:26.791Z,97786.52
2018-12-07T13:57:55.294Z,97783.25
2018-12-07T14:00:23.562Z,97781.80
2018-12-07T14:02:51.696Z,97767.64
2018-12-07T14:05:20.593Z,97757.15
2018-12-07T14:07:48.882Z,97754.23
2018-12-07T14:10:17.094Z,97745.77
2018-12-07T14:12:45.179Z,97739.59
2018-12-07T14:15:13.711Z,97734.20
2018-12-07T14:17:41.837Z,97717.61
2018-12-07T14:20:10.039Z,97719.25
2018-12-07T14:22:38.325Z,97716.87
2018-12-07T14:25:06.666Z,97714.09
2018-12-07T14:27:34.826Z,97714.11
2018-12-07T14:30:05.600Z,97705.98
2018-12-07T14:32:33.904Z,97699.81
2018-12-07T14:35:02.169Z,97700.97
2018-12-07T14:37:30.550Z,97699.95
2018-12-07T14:39:58.844Z,97702.39
2018-12-07T14:42:27.098Z,97690.88
2018-12-07T14:44:55.272Z,97678.52
2018-12-07T14:47:23.343Z,97683.38
2018-12-07T14:49:51.729Z,97659.59
2018-12-07T14:52:19.962Z,97655.55
2018-12-07T14:54:48.700Z,97678.94
2018-12-07T14:57:16.935Z,97675.84
2018-12-07T14:59:45.317Z,97676.52
2018-12-07T15:02:13.683Z,97661.48
2018-12-07T15:04:41.987Z,97653.52
2018-12-07T15:07:10.131Z,97661.69
2018-12-07T15:09:38.547Z,97652.06
2018-12-07T15:12:06.796Z,97642.80
2018-12-07T15:14:34.929Z,97620.22
2018-12-07T15:17:03.343Z,97617.95
2018-12-07T15:19:31.650Z,97620.11
2018-12-07T15:21:59.799Z,97618.50
2018-12-07T15:24:27.992Z,97589.02
2018-12-07T15:26:56.451Z,97580.08
2018-12-07T15:29:24.712Z,97566.75
2018-12-07T15:31:52.939Z,97571.14
2018-12-07T15:34:21.268Z,97564.31
2018-12-07T15:36:49.489Z,97559.93
2018-12-07T15:39:17.884Z,97557.81
2018-12-07T15:41:46.019Z,97552.75
2018-12-07T15:44:14.127Z,97544.48
2018-12-07T15:46:42.415Z,97546.60
2018-12-07T15:49:10.578Z,97538.80
2018-12-07T15:51:39.029Z,97530.81
2018-12-07T15:54:07.198Z,97512.24
2018-12-07T15:56:35.378Z,97513.70
2018-12-07T15:59:03.753Z,97496.78
2018-12-07T16:01:32.226Z,97507.52
2018-12-07T16:04:00.679Z,97507.69
2018-12-07T16:06:30.136Z,97504.09
2018-12-07T16:08:58.413Z,97505.90
2018-12-07T16:11:27.249Z,97491.55
2018-12-07T16:13:55.635Z,97480.30
2018-12-07T16:16:23.997Z,97468.59
2018-12-07T16:18:52.179Z,97462.73
2018-12-07T16:21:20.371Z,97446.45
2018-12-07T16:23:48.714Z,97450.48
2018-12-07T16:26:16.948Z,97442.52
2018-12-07T16:28:45.303Z,97442.03
2018-12-07T16:31:13.347Z,97443.13
2018-12-07T16:33:41.534Z,97443.59
2018-12-07T16:36:10.101Z,97435.08
2018-12-07T16:38:38.536Z,97437.02
2018-12-07T16:41:06.862Z,97434.58
2018-12-07T16:43:35.086Z,97425.95
2018-12-07T16:46:03.243Z,97417.16
2018-12-07T16:48:31.382Z,97414.33
2018-12-07T16:50:59.917Z,97415.30
2018-12-07T16:53:28.151Z,97412.84
2018-12-07T16:55:56.373Z,97409.39
2018-12-07T16:58:24.546Z,97413.60
2018-12-07T17:00:52.797Z,97418.28
2018-12-07T17:03:21.267Z,97417.94
2018-12-07T17:05:49.547Z,97416.72
2018-12-07T17:08:17.978Z,97405.07
2018-12-07T17:10:46.270Z,97403.91
2018-12-07T17:13:14.803Z,97404.54
2018-12-07T17:15:43.127Z,97400.47
2018-12-07T17:18:11.473Z,97403.86
2018-12-07T17:20:39.858Z,97404.33
2018-12-07T17:23:08.164Z,97388.25
2018-12-07T17:25:37.685Z,97382.09
2018-12-07T17:28:05.920Z,97380.80
2018-12-07T17:30:34.173Z,97378.70
2018-12-07T17:33:02.390Z,97367.45
2018-12-07T17:35:30.981Z,97362.92
2018-12-07T17:37:59.281Z,97368.47
2018-12-07T17:40:27.535Z,97363.60
2018-12-07T17:42:55.882Z,97367.02
2018-12-07T17:45:24.731Z,97363.75
2018-12-07T17:47:53.030Z,97370.29
2018-12-07T17:50:22.345Z,97362.52
2018-12-07T17:52:50.693Z,97364.28
2018-12-07T17:55:18.777Z,97357.46
2018-12-07T17:57:47.012Z,97345.64
2018-12-07T18:00:15.161Z,97358.95
2018-12-07T18:02:43.271Z,97355.70
2018-12-07T18:05:11.589Z,97337.19
2018-12-07T18:07:39.890Z,97335.45
2018-12-07T18:10:08.716Z,97329.24
2018-12-07T18:12:37.280Z,97339.97
2018-12-07T18:15:06.819Z,97330.59
2018-12-07T18:17:35.061Z,97331.23
2018-12-07T18:20:04.355Z,97338.88
2018-12-07T18:22:32.535Z,97341.48
2018-12-07T18:25:00.681Z,97341.30
2018-12-07T18:27:28.936Z,97340.36
2018-12-07T18:29:57.224Z,97352.08
2018-12-07T18:32:25.350Z,97334.88
2018-12-07T18:34:53.533Z,97374.73
2018-12-07T18:37:21.718Z,97371.91
2018-12-07T18:39:49.965Z,97384.30
2018-12-07T18:42:18.215Z,97403.17
2018-12-07T18:44:46.350Z,97405.14
2018-12-07T18:47:14.792Z,97408.08
2018-12-07T18:49:43.214Z,97415.53
2018-12-07T18:52:11.587Z,97414.64
2018-12-07T18:54:39.921Z,97426.03
2018-12-07T18:57:08.370Z,97425.36
2018-12-07T18:59:36.703Z,97441.28
2018-12-07T19:02:05.106Z,97448.23
2018-12-07T19:04:33.443Z,97463.17
2018-12-07T19:07:01.887Z,97480.44
2018-12-07T19:09:30.407Z,97482.41
2018-12-07T19:11:59.271Z,97494.56
2018-12-07T19:14:27.601Z,97508.35
2018-12-07T19:16:56.231Z,97502.78
2018-12-07T19:19:24.447Z,97518.30
2018-12-07T19:21:52.732Z,97534.32
2018-12-07T19:24:21.050Z,97527.39
2018-12-07T19:26:49.930Z,97541.81
2018-12-07T19:29:18.162Z,97546.23
2018-12-07T19:31:46.477Z,97568.64
2018-12-07T19:34:14.819Z,97582.59
2018-12-07T19:36:42.899Z,97590.86
2018-12-07T19:39:11.013Z,97599.25
2018-12-07T19:41:39.494Z,97609.34
2018-12-07T19:44:08.065Z,97611.85
2018-12-07T19:46:37.450Z,97612.95
2018-12-07T19:49:05.846Z,97615.87
2018-12-07T19:51:34.323Z,97615.91
2018-12-07T19:54:02.646Z,97618.23
2018-12-07T19:56:30.939Z,97628.30
2018-12-07T19:58:59.217Z,97641.27
2018-12-07T20:01:27.392Z,97646.42
2018-12-07T20:03:55.915Z,97652.48
2018-12-07T20:06:24.337Z,97661.58
2018-12-07T20:08:52.664Z,97663.76
2018-12-07T20:11:21.245Z,97675.82
2018-12-07T20:13:49.562Z,97675.83
2018-12-07T20:16:18.032Z,97675.62
2018-12-07T20:18:46.306Z,97673.39
2018-12-07T20:21:14.528Z,97661.94
2018-12-07T20:23:43.196Z,97667.98
2018-12-07T20:26:11.380Z,97667.56
2018-12-07T20:28:39.539Z,97686.39
2018-12-07T20:31:08.014Z,97705.53
2018-12-07T20:33:36.308Z,97710.83
2018-12-07T20:36:04.838Z,97705.73
2018-12-07T20:38:33.885Z,97711.53
2018-12-07T20:41:02.820Z,97717.59
2018-12-07T20:43:31.071Z,97719.87
2018-12-07T20:45:59.727Z,97729.94
2018-12-07T20:48:28.591Z,97721.83
2018-12-07T20:50:56.955Z,97727.63
2018-12-07T20:53:25.163Z,97736.21
2018-12-07T20:55:53.428Z,97740.66
2018-12-07T20:58:21.693Z,97757.95
2018-12-07T21:00:59.012Z,97772.52
2018-12-07T21:03:28.114Z,97777.28
2018-12-07T21:06:03.823Z,97773.78
2018-12-07T21:08:39.489Z,97784.16
2018-12-07T21:11:08.307Z,97801.80
2018-12-07T21:13:40.491Z,97801.06
2018-12-07T21:19:00.296Z,97814.25
2018-12-07T21:21:28.999Z,97814.03
2018-12-07T21:23:57.456Z,97830.69
2018-12-07T21:26:25.948Z,97842.73
2018-12-07T21:28:54.342Z,97840.95
2018-12-07T21:31:22.603Z,97853.25
2018-12-07T21:33:56.280Z,97850.20
2018-12-07T21:36:32.078Z,97851.33
2018-12-07T21:39:00.259Z,97853.20
2018-12-07T21:41:28.914Z,97862.97
2018-12-07T21:43:57.290Z,97859.64
2018-12-07T21:46:25.767Z,97853.29
2018-12-07T21:48:54.144Z,97867.49
2018-12-07T21:51:28.090Z,97882.81
2018-12-07T21:53:56.169Z,97881.19
2018-12-07T21:56:24.273Z,97877.30
2018-12-07T21:58:52.846Z,97876.66
2018-12-07T22:01:21.341Z,97890.06
2018-12-07T22:03:49.544Z,97882.27
2018-12-07T22:06:18.054Z,97903.04
2018-12-07T22:08:46.214Z,97914.63
2018-12-07T22:11:14.352Z,97912.83
2018-12-07T22:13:42.844Z,97919.16
2018-12-07T22:16:11.091Z,97929.75
2018-12-07T22:18:39.351Z,97942.05
2018-12-07T22:21:07.723Z,97948.05
2018-12-07T22:23:35.763Z,97958.55
2018-12-07T22:26:04.177Z,97955.26
2018-12-07T22:28:32.567Z,97966.16
2018-12-07T22:31:01.134Z,97976.95
2018-12-07T22:33:29.680Z,97969.92
2018-12-07T22:35:57.835Z,97969.06
2018-12-07T22:38:26.222Z,97955.09
2018-12-07T22:40:54.617Z,97967.28
2018-12-07T22:43:23.003Z,97967.75
2018-12-07T22:45:51.686Z,97971.45
2018-12-07T22:48:19.953Z,97972.52
2018-12-07T22:50:48.219Z,97975.78
2018-12-07T22:53:16.287Z,97978.98
2018-12-07T22:55:44.342Z,97978.03
2018-12-07T22:58:12.515Z,97989.88
2018-12-07T23:00:42.527Z,97986.59
2018-12-07T23:03:10.663Z,97987.64
2018-12-07T23:05:38.763Z,97984.98
2018-12-07T23:08:06.847Z,97986.02
2018-12-07T23:10:34.891Z,98013.02
2018-12-07T23:13:02.991Z,98011.70
2018-12-07T23:15:31.062Z,98023.20
2018-12-07T23:17:59.131Z,98047.37
2018-12-07T23:20:27.205Z,98020.86
2018-12-07T23:22:55.337Z,98030.62
2018-12-07T23:25:23.359Z,98033.21
2018-12-07T23:27:52.547Z,98038.25
2018-12-07T23:30:20.591Z,98042.32
2018-12-07T23:32:48.676Z,98044.32
2018-12-07T23:35:17.087Z,98045.29
2018-12-07T23:37:45.159Z,98043.75
2018-12-07T23:40:13.195Z,98043.14
2018-12-07T23:42:41.303Z,98041.36
2018-12-07T23:45:09.419Z,98043.52
2018-12-07T23:47:37.492Z,98038.94
2018-12-07T23:50:07.380Z,98044.43
2018-12-07T23:52:35.511Z,98034.39
2018-12-07T23:55:04.554Z,98038.52
2018-12-07T23:57:32.803Z,98045.98
